createdAt,value
2024-04-17T00:03:26.926Z,23.4
2024-04-17T00:09:04.230Z,23.4
2024-04-17T00:14:40.534Z,23.3
2024-04-17T00:20:17.170Z,23.3
2024-04-17T00:25:53.935Z,23.3
2024-04-17T00:31:30.352Z,23.3
2024-04-17T00:37:06.750Z,23.3
2024-04-17T00:42:42.703Z,23.3
2024-04-17T00:48:20.707Z,23.3
2024-04-17T00:53:57.050Z,23.3
2024-04-17T00:59:33.262Z,23.3
2024-04-17T01:05:10.041Z,23.3
2024-04-17T01:10:46.970Z,23.3
2024-04-17T01:16:24.188Z,23.3
2024-04-17T01:22:01.229Z,23.3
2024-04-17T01:27:37.932Z,23.3
2024-04-17T01:33:14.941Z,23.3
2024-04-17T01:38:50.969Z,23.3
2024-04-17T01:44:29.703Z,23.3
2024-04-17T01:50:07.607Z,23.3
2024-04-17T01:55:43.079Z,23.3
2024-04-17T02:01:18.951Z,23.3
2024-04-17T02:06:40.552Z,23.3
2024-04-17T02:12:01.576Z,23.3
2024-04-17T02:17:38.555Z,23.3
2024-04-17T02:22:59.864Z,23.3
2024-04-17T02:28:36.142Z,23.3
2024-04-17T02:34:13.825Z,23.3
2024-04-17T02:39:49.240Z,23.3
2024-04-17T02:45:25.137Z,23.3
2024-04-17T02:51:01.987Z,23.3
2024-04-17T02:56:38.013Z,23.3
2024-04-17T03:02:14.059Z,23.3
2024-04-17T03:07:51.157Z,23.3
2024-04-17T03:13:27.554Z,23.3
2024-04-17T03:19:06.764Z,23.3
2024-04-17T03:24:27.832Z,23.3
2024-04-17T03:30:04.805Z,23.3
2024-04-17T03:35:40.842Z,23.3
2024-04-17T03:41:17.098Z,23.3
2024-04-17T03:46:53.235Z,23.3
2024-04-17T03:52:30.105Z,23.3
2024-04-17T03:58:06.337Z,23.3
2024-04-17T04:03:42.828Z,23.3
2024-04-17T04:09:19.552Z,23.3
2024-04-17T04:14:56.391Z,23.3
2024-04-17T04:20:34.171Z,23.3
2024-04-17T04:26:10.290Z,23.3
2024-04-17T04:31:48.154Z,23.3
2024-04-17T04:37:25.244Z,23.3
2024-04-17T04:43:01.553Z,23.3
2024-04-17T04:48:42.608Z,23.3
2024-04-17T04:54:19.441Z,23.3
2024-04-17T04:59:56.391Z,23.3
2024-04-17T05:05:34.505Z,23.3
2024-04-17T05:11:11.279Z,23.3
2024-04-17T05:16:47.672Z,23.3
2024-04-17T05:22:25.117Z,23.3
2024-04-17T05:27:49.611Z,23.3
2024-04-17T05:33:25.975Z,23.3
2024-04-17T05:39:02.635Z,23.3
2024-04-17T05:44:39.061Z,23.3
2024-04-17T05:50:21.025Z,23.3
2024-04-17T05:55:57.773Z,23.3
2024-04-17T06:01:33.987Z,23.3
2024-04-17T06:07:11.586Z,23.3
2024-04-17T06:12:51.021Z,23.3
2024-04-17T06:18:30.132Z,23.3
2024-04-17T06:24:10.367Z,23.3
2024-04-17T06:29:46.940Z,23.2
2024-04-17T06:35:23.978Z,23.2
2024-04-17T06:41:00.401Z,23.2
2024-04-17T06:46:47.156Z,23.2
2024-04-17T06:52:24.333Z,23.2
2024-04-17T06:58:03.621Z,23.2
2024-04-17T07:03:37.910Z,23.2
2024-04-17T07:08:59.091Z,23.2
2024-04-17T07:14:36.821Z,23.3
2024-04-17T07:20:12.842Z,23.3
2024-04-17T07:25:50.440Z,23.3
2024-04-17T07:31:26.897Z,23.3
2024-04-17T07:36:48.866Z,23.3
2024-04-17T07:42:11.310Z,23.3
2024-04-17T07:47:47.649Z,23.3
2024-04-17T07:53:31.119Z,23.3
2024-04-17T07:59:08.353Z,23.3
2024-04-17T08:04:45.414Z,23.3
2024-04-17T08:10:21.560Z,23.3
2024-04-17T08:16:01.775Z,23.3
2024-04-17T08:21:39.130Z,23.3
2024-04-17T08:27:16.537Z,23.3
2024-04-17T08:32:52.909Z,23.3
2024-04-17T08:38:31.037Z,23.3
2024-04-17T08:44:10.688Z,23.3
2024-04-17T08:50:00.912Z,23.3
2024-04-17T08:55:21.783Z,23.3
2024-04-17T09:00:58.603Z,23.3
2024-04-17T09:06:19.572Z,23.3
2024-04-17T09:17:47.154Z,23.3
2024-04-17T09:23:23.420Z,23.3
2024-04-17T09:28:59.559Z,23.3
2024-04-17T09:34:38.277Z,23.3
2024-04-17T09:40:17.503Z,23.3
2024-04-17T09:46:05.877Z,23.3
2024-04-17T09:51:42.489Z,23.3
2024-04-17T09:57:32.070Z,23.3
2024-04-17T10:03:17.840Z,23.3
2024-04-17T10:08:58.300Z,23.3
2024-04-17T10:14:37.595Z,23.2
2024-04-17T10:20:33.660Z,23.1
2024-04-17T10:26:19.125Z,23.1
2024-04-17T10:31:54.952Z,23.1
2024-04-17T10:37:16.390Z,23.1
2024-04-17T10:43:11.184Z,23.1
2024-04-17T10:48:48.071Z,23.1
2024-04-17T10:54:24.754Z,23.1
2024-04-17T11:00:03.780Z,23.1
2024-04-17T11:05:40.426Z,23.1
2024-04-17T11:11:27.992Z,23.1
2024-04-17T11:17:05.215Z,23.1
2024-04-17T11:22:41.605Z,23.1
2024-04-17T11:28:19.613Z,23
2024-04-17T11:34:07.274Z,23
2024-04-17T11:39:46.043Z,22.9
2024-04-17T11:45:29.755Z,22.8
2024-04-17T11:51:10.330Z,22.8
2024-04-17T11:56:46.414Z,22.7
2024-04-17T17:19:49.461Z,22.8
2024-04-17T17:25:29.875Z,22.8
2024-04-17T17:31:15.433Z,22.8
2024-04-17T17:36:59.190Z,22.8
2024-04-17T17:42:40.412Z,22.8
2024-04-17T17:48:06.345Z,22.8
2024-04-17T17:53:48.960Z,22.8
2024-04-17T17:59:31.903Z,22.8
2024-04-17T18:05:17.218Z,22.8
2024-04-17T18:10:59.448Z,22.8
2024-04-17T18:16:51.351Z,22.8
2024-04-17T18:22:01.969Z,22.8
2024-04-17T18:26:57.132Z,22.8
2024-04-17T18:32:05.356Z,22.8
2024-04-17T18:37:16.251Z,22.8
2024-04-17T18:42:10.757Z,22.8
2024-04-17T18:47:17.532Z,22.8
2024-04-17T18:52:25.762Z,22.8
2024-04-17T18:57:34.181Z,22.8
2024-04-17T19:02:55.755Z,22.8
2024-04-17T19:08:16.581Z,22.8
2024-04-17T19:13:43.259Z,22.8
2024-04-17T19:18:49.055Z,22.8
2024-04-17T19:23:55.029Z,22.8
2024-04-17T19:29:01.996Z,22.8
2024-04-17T19:34:39.186Z,22.8
2024-04-17T19:40:04.956Z,22.8
2024-04-17T19:46:01.504Z,22.8
2024-04-17T19:51:43.387Z,22.8
2024-04-17T19:57:28.961Z,22.8
2024-04-17T20:03:10.275Z,22.8
2024-04-17T20:08:49.870Z,22.8
2024-04-17T20:13:58.905Z,28
2024-04-17T20:19:37.446Z,31.8
2024-04-17T20:25:25.604Z,33.7
2024-04-17T20:31:13.574Z,31.4
2024-04-17T20:36:38.472Z,30.4
2024-04-17T20:42:11.256Z,26.4
2024-04-17T20:47:47.728Z,25.6
2024-04-17T20:53:25.463Z,24.5
2024-04-17T20:59:02.514Z,24.3
2024-04-17T21:04:41.241Z,23.9
2024-04-17T21:10:18.959Z,23.7
2024-04-17T21:15:55.949Z,23.4
2024-04-17T21:21:33.346Z,23.2
2024-04-17T21:27:10.200Z,23.1
2024-04-17T21:32:47.553Z,27.3
2024-04-17T21:38:08.975Z,32.1
2024-04-17T21:43:30.526Z,33
2024-04-17T21:49:07.452Z,31
2024-04-17T21:54:43.780Z,27.7
2024-04-17T22:00:23.528Z,26.1
2024-04-17T22:06:01.933Z,25.1
2024-04-17T22:11:38.679Z,24.8
2024-04-17T22:17:20.067Z,24.3
2024-04-17T22:22:56.904Z,24.1
2024-04-17T22:28:33.259Z,30.1
2024-04-17T22:34:11.182Z,33.1
2024-04-17T22:39:50.308Z,31.5
2024-04-17T22:45:26.338Z,29.3
2024-04-17T22:50:52.174Z,26.3
2024-04-17T22:56:28.374Z,25.6
2024-04-17T23:02:04.795Z,24.9
2024-04-17T23:07:42.524Z,24.5
2024-04-17T23:13:20.350Z,24.3
2024-04-17T23:19:00.271Z,23.9
2024-04-17T23:24:44.301Z,23.9
2024-04-17T23:30:20.562Z,29.3
2024-04-17T23:35:41.951Z,32.9
2024-04-17T23:41:19.415Z,31.5
2024-04-17T23:46:56.810Z,30.4
2024-04-17T23:52:33.372Z,26.4
2024-04-17T23:58:10.036Z,25.8
